sensor_id;sensor_type;location;lat;lon;timestamp;pressure;altitude;pressure_sealevel;temperature;humidity
63019;BME280;49105;46.046;10.760;2023-04-27T00:00:18;95618.88;;;9.24;56.36
63019;BME280;49105;46.046;10.760;2023-04-27T00:02:44;95609.13;;;9.19;56.67
63019;BME280;49105;46.046;10.760;2023-04-27T00:05:10;95619.94;;;9.13;56.65
63019;BME280;49105;46.046;10.760;2023-04-27T00:07:35;95622.34;;;9.14;56.46
63019;BME280;49105;46.046;10.760;2023-04-27T00:10:01;95612.28;;;9.16;56.84
63019;BME280;49105;46.046;10.760;2023-04-27T00:12:26;95616.25;;;9.19;56.43
63019;BME280;49105;46.046;10.760;2023-04-27T00:14:51;95620.75;;;9.24;56.47
63019;BME280;49105;46.046;10.760;2023-04-27T00:17:16;95619.41;;;9.21;56.33
63019;BME280;49105;46.046;10.760;2023-04-27T00:19:42;95625.47;;;9.22;56.41
63019;BME280;49105;46.046;10.760;2023-04-27T00:22:07;95618.91;;;9.14;56.62
63019;BME280;49105;46.046;10.760;2023-04-27T00:24:33;95619.94;;;9.08;56.39
63019;BME280;49105;46.046;10.760;2023-04-27T00:26:58;95615.44;;;8.98;56.28
63019;BME280;49105;46.046;10.760;2023-04-27T00:29:23;95626.28;;;9.02;56.35
63019;BME280;49105;46.046;10.760;2023-04-27T00:31:49;95629.97;;;9.06;56.51
63019;BME280;49105;46.046;10.760;2023-04-27T00:34:15;95625.50;;;9.06;57.15
63019;BME280;49105;46.046;10.760;2023-04-27T00:36:40;95632.34;;;9.02;57.08
63019;BME280;49105;46.046;10.760;2023-04-27T00:39:05;95632.03;;;8.88;56.91
63019;BME280;49105;46.046;10.760;2023-04-27T00:41:31;95625.47;;;8.81;57.56
63019;BME280;49105;46.046;10.760;2023-04-27T00:43:56;95628.88;;;8.86;57.19
63019;BME280;49105;46.046;10.760;2023-04-27T00:46:22;95631.81;;;8.85;57.27
63019;BME280;49105;46.046;10.760;2023-04-27T00:48:48;95638.91;;;8.84;56.85
63019;BME280;49105;46.046;10.760;2023-04-27T00:51:13;95631.25;;;8.78;57.45
63019;BME280;49105;46.046;10.760;2023-04-27T00:53:38;95629.13;;;8.75;56.93
63019;BME280;49105;46.046;10.760;2023-04-27T00:56:04;95628.84;;;8.71;57.30
63019;BME280;49105;46.046;10.760;2023-04-27T00:58:30;95623.00;;;8.43;58.22
63019;BME280;49105;46.046;10.760;2023-04-27T01:00:56;95637.13;;;8.27;58.18
63019;BME280;49105;46.046;10.760;2023-04-27T01:03:22;95635.28;;;8.28;58.31
63019;BME280;49105;46.046;10.760;2023-04-27T01:05:47;95630.81;;;8.33;58.41
63019;BME280;49105;46.046;10.760;2023-04-27T01:08:12;95640.63;;;8.43;58.07
63019;BME280;49105;46.046;10.760;2023-04-27T01:10:38;95630.91;;;8.43;58.03
63019;BME280;49105;46.046;10.760;2023-04-27T01:13:03;95639.34;;;8.45;57.76
63019;BME280;49105;46.046;10.760;2023-04-27T01:15:28;95637.25;;;8.48;57.87
63019;BME280;49105;46.046;10.760;2023-04-27T01:17:57;95639.06;;;8.42;58.26
63019;BME280;49105;46.046;10.760;2023-04-27T01:20:23;95639.31;;;8.40;57.94
63019;BME280;49105;46.046;10.760;2023-04-27T01:22:48;95634.56;;;8.42;58.41
63019;BME280;49105;46.046;10.760;2023-04-27T01:25:13;95633.50;;;8.38;57.97
63019;BME280;49105;46.046;10.760;2023-04-27T01:27:39;95635.63;;;8.41;58.54
63019;BME280;49105;46.046;10.760;2023-04-27T01:30:05;95635.91;;;8.40;58.27
63019;BME280;49105;46.046;10.760;2023-04-27T01:32:30;95643.38;;;8.11;58.59
63019;BME280;49105;46.046;10.760;2023-04-27T01:34:55;95637.78;;;8.02;59.02
63019;BME280;49105;46.046;10.760;2023-04-27T01:37:21;95640.69;;;8.06;58.93
63019;BME280;49105;46.046;10.760;2023-04-27T01:39:46;95638.63;;;8.08;59.11
63019;BME280;49105;46.046;10.760;2023-04-27T01:42:11;95644.69;;;8.13;58.52
63019;BME280;49105;46.046;10.760;2023-04-27T01:44:37;95647.88;;;8.15;58.78
63019;BME280;49105;46.046;10.760;2023-04-27T01:47:02;95649.47;;;8.16;58.38
63019;BME280;49105;46.046;10.760;2023-04-27T01:49:27;95655.50;;;8.12;58.69
63019;BME280;49105;46.046;10.760;2023-04-27T01:51:52;95649.44;;;8.11;58.70
63019;BME280;49105;46.046;10.760;2023-04-27T01:54:18;95657.88;;;8.13;58.78
63019;BME280;49105;46.046;10.760;2023-04-27T01:56:43;95662.13;;;8.19;58.50
63019;BME280;49105;46.046;10.760;2023-04-27T01:59:09;95650.75;;;8.14;58.83
63019;BME280;49105;46.046;10.760;2023-04-27T02:01:34;95650.22;;;8.07;58.78
63019;BME280;49105;46.046;10.760;2023-04-27T02:03:59;95662.53;;;7.96;58.69
63019;BME280;49105;46.046;10.760;2023-04-27T02:06:25;95656.72;;;7.94;58.91
63019;BME280;49105;46.046;10.760;2023-04-27T02:08:51;95658.31;;;7.95;58.93
63019;BME280;49105;46.046;10.760;2023-04-27T02:11:17;95673.88;;;8.02;58.82
63019;BME280;49105;46.046;10.760;2023-04-27T02:13:42;95669.16;;;8.04;58.54
63019;BME280;49105;46.046;10.760;2023-04-27T02:16:07;95669.19;;;8.09;58.90
63019;BME280;49105;46.046;10.760;2023-04-27T02:18:32;95668.66;;;8.07;58.82
63019;BME280;49105;46.046;10.760;2023-04-27T02:20:59;95673.06;;;7.96;58.76
63019;BME280;49105;46.046;10.760;2023-04-27T02:23:25;95678.81;;;7.88;59.01
63019;BME280;49105;46.046;10.760;2023-04-27T02:25:50;95680.88;;;7.81;59.35
63019;BME280;49105;46.046;10.760;2023-04-27T02:28:15;95686.44;;;7.84;59.16
63019;BME280;49105;46.046;10.760;2023-04-27T02:30:40;95683.59;;;7.91;59.38
63019;BME280;49105;46.046;10.760;2023-04-27T02:33:06;95681.78;;;7.96;59.00
63019;BME280;49105;46.046;10.760;2023-04-27T02:35:31;95686.22;;;7.91;59.14
63019;BME280;49105;46.046;10.760;2023-04-27T02:37:57;95689.69;;;7.96;59.50
63019;BME280;49105;46.046;10.760;2023-04-27T02:40:22;95695.66;;;7.82;59.52
63019;BME280;49105;46.046;10.760;2023-04-27T02:42:47;95700.41;;;7.85;59.54
63019;BME280;49105;46.046;10.760;2023-04-27T02:45:13;95692.78;;;7.88;59.65
63019;BME280;49105;46.046;10.760;2023-04-27T02:47:38;95692.00;;;7.88;59.85
63019;BME280;49105;46.046;10.760;2023-04-27T02:50:04;95692.75;;;7.83;59.89
63019;BME280;49105;46.046;10.760;2023-04-27T02:52:29;95694.78;;;7.71;59.86
63019;BME280;49105;46.046;10.760;2023-04-27T02:54:55;95693.41;;;7.63;59.99
63019;BME280;49105;46.046;10.760;2023-04-27T02:57:21;95693.41;;;7.63;60.17
63019;BME280;49105;46.046;10.760;2023-04-27T02:59:46;95694.53;;;7.72;60.11
63019;BME280;49105;46.046;10.760;2023-04-27T03:02:11;95696.72;;;7.86;59.71
63019;BME280;49105;46.046;10.760;2023-04-27T03:04:37;95694.66;;;7.93;59.73
63019;BME280;49105;46.046;10.760;2023-04-27T03:07:02;95698.28;;;7.82;59.93
63019;BME280;49105;46.046;10.760;2023-04-27T03:09:28;95700.34;;;7.75;60.05
63019;BME280;49105;46.046;10.760;2023-04-27T03:11:53;95711.13;;;7.73;60.01
63019;BME280;49105;46.046;10.760;2023-04-27T03:14:18;95707.94;;;7.71;60.25
63019;BME280;49105;46.046;10.760;2023-04-27T03:16:43;95700.56;;;7.73;60.13
63019;BME280;49105;46.046;10.760;2023-04-27T03:19:09;95704.06;;;7.79;60.05
63019;BME280;49105;46.046;10.760;2023-04-27T03:21:34;95708.00;;;7.81;59.84
63019;BME280;49105;46.046;10.760;2023-04-27T03:24:00;95711.69;;;7.80;60.06
63019;BME280;49105;46.046;10.760;2023-04-27T03:26:25;95707.00;;;7.82;60.04
63019;BME280;49105;46.046;10.760;2023-04-27T03:28:51;95702.72;;;7.76;60.02
63019;BME280;49105;46.046;10.760;2023-04-27T03:31:16;95708.91;;;7.60;60.32
63019;BME280;49105;46.046;10.760;2023-04-27T03:33:41;95719.59;;;7.48;60.68
63019;BME280;49105;46.046;10.760;2023-04-27T03:36:07;95716.47;;;7.51;60.93
63019;BME280;49105;46.046;10.760;2023-04-27T03:38:32;95717.91;;;7.64;60.45
63019;BME280;49105;46.046;10.760;2023-04-27T03:40:58;95712.94;;;7.67;60.28
63019;BME280;49105;46.046;10.760;2023-04-27T03:43:24;95712.56;;;7.54;60.65
63019;BME280;49105;46.046;10.760;2023-04-27T03:45:49;95715.50;;;7.57;60.57
63019;BME280;49105;46.046;10.760;2023-04-27T03:48:15;95703.66;;;7.65;60.52
63019;BME280;49105;46.046;10.760;2023-04-27T03:50:40;95705.53;;;7.64;60.30
63019;BME280;49105;46.046;10.760;2023-04-27T03:53:06;95702.13;;;7.69;60.25
63019;BME280;49105;46.046;10.760;2023-04-27T03:55:32;95701.47;;;7.52;60.48
63019;BME280;49105;46.046;10.760;2023-04-27T03:57:57;95703.97;;;7.36;60.87
63019;BME280;49105;46.046;10.760;2023-04-27T04:00:22;95707.50;;;7.20;60.94
63019;BME280;49105;46.046;10.760;2023-04-27T04:02:48;95705.63;;;7.15;61.35
63019;BME280;49105;46.046;10.760;2023-04-27T04:05:16;95705.63;;;7.15;61.27
63019;BME280;49105;46.046;10.760;2023-04-27T04:07:42;95708.69;;;7.07;61.27
63019;BME280;49105;46.046;10.760;2023-04-27T04:10:07;95717.94;;;7.10;61.63
63019;BME280;49105;46.046;10.760;2023-04-27T04:12:33;95708.84;;;7.22;61.33
63019;BME280;49105;46.046;10.760;2023-04-27T04:14:58;95717.00;;;7.21;61.21
63019;BME280;49105;46.046;10.760;2023-04-27T04:17:24;95721.38;;;7.10;61.53
63019;BME280;49105;46.046;10.760;2023-04-27T04:19:49;95717.16;;;7.09;61.83
63019;BME280;49105;46.046;10.760;2023-04-27T04:22:15;95711.88;;;7.09;61.89
63019;BME280;49105;46.046;10.760;2023-04-27T04:24:40;95718.56;;;7.17;61.76
63019;BME280;49105;46.046;10.760;2023-04-27T04:27:05;95716.44;;;7.19;61.54
63019;BME280;49105;46.046;10.760;2023-04-27T04:29:31;95725.47;;;7.28;61.64
63019;BME280;49105;46.046;10.760;2023-04-27T04:31:56;95729.00;;;7.39;61.26
63019;BME280;49105;46.046;10.760;2023-04-27T04:34:22;95732.72;;;7.43;61.26
63019;BME280;49105;46.046;10.760;2023-04-27T04:36:47;95726.22;;;7.51;61.10
63019;BME280;49105;46.046;10.760;2023-04-27T04:39:16;95730.28;;;7.36;61.58
63019;BME280;49105;46.046;10.760;2023-04-27T04:41:41;95727.66;;;7.36;61.59
63019;BME280;49105;46.046;10.760;2023-04-27T04:44:06;95729.81;;;7.39;61.41
63019;BME280;49105;46.046;10.760;2023-04-27T04:46:32;95733.22;;;7.40;61.35
63019;BME280;49105;46.046;10.760;2023-04-27T04:48:57;95733.03;;;7.46;61.17
63019;BME280;49105;46.046;10.760;2023-04-27T04:51:22;95739.34;;;7.45;61.28
63019;BME280;49105;46.046;10.760;2023-04-27T04:53:48;95751.31;;;7.31;61.51
63019;BME280;49105;46.046;10.760;2023-04-27T04:56:13;95752.19;;;7.15;62.00
63019;BME280;49105;46.046;10.760;2023-04-27T04:58:40;95751.63;;;7.08;62.14
63019;BME280;49105;46.046;10.760;2023-04-27T05:01:06;95761.63;;;7.11;62.24
63019;BME280;49105;46.046;10.760;2023-04-27T05:03:31;95770.69;;;7.20;62.09
63019;BME280;49105;46.046;10.760;2023-04-27T05:05:57;95760.00;;;7.32;61.57
63019;BME280;49105;46.046;10.760;2023-04-27T05:08:22;95764.00;;;7.34;61.75
63019;BME280;49105;46.046;10.760;2023-04-27T05:10:50;95760.66;;;7.44;61.52
63019;BME280;49105;46.046;10.760;2023-04-27T05:13:16;95767.72;;;7.65;61.45
63019;BME280;49105;46.046;10.760;2023-04-27T05:15:41;95778.19;;;7.92;61.09
63019;BME280;49105;46.046;10.760;2023-04-27T05:18:07;95780.63;;;7.99;60.67
63019;BME280;49105;46.046;10.760;2023-04-27T05:20:35;95784.75;;;7.90;61.21
63019;BME280;49105;46.046;10.760;2023-04-27T05:23:00;95779.63;;;8.10;60.93
63019;BME280;49105;46.046;10.760;2023-04-27T05:25:28;95787.69;;;8.31;61.03
63019;BME280;49105;46.046;10.760;2023-04-27T05:27:54;95782.22;;;8.37;60.91
63019;BME280;49105;46.046;10.760;2023-04-27T05:30:19;95785.47;;;8.50;60.36
63019;BME280;49105;46.046;10.760;2023-04-27T05:32:45;95785.84;;;8.68;60.60
63019;BME280;49105;46.046;10.760;2023-04-27T05:35:10;95789.88;;;8.81;60.13
63019;BME280;49105;46.046;10.760;2023-04-27T05:37:35;95785.44;;;8.97;59.93
63019;BME280;49105;46.046;10.760;2023-04-27T05:40:00;95788.13;;;9.12;59.46
63019;BME280;49105;46.046;10.760;2023-04-27T05:42:26;95787.38;;;9.22;59.40
63019;BME280;49105;46.046;10.760;2023-04-27T05:44:51;95782.38;;;9.31;59.34
63019;BME280;49105;46.046;10.760;2023-04-27T05:47:16;95784.25;;;9.30;59.52
63019;BME280;49105;46.046;10.760;2023-04-27T05:49:42;95786.88;;;9.40;59.38
63019;BME280;49105;46.046;10.760;2023-04-27T05:52:07;95790.88;;;9.58;59.04
63019;BME280;49105;46.046;10.760;2023-04-27T05:54:32;95786.41;;;9.64;58.94
63019;BME280;49105;46.046;10.760;2023-04-27T05:56:58;95789.59;;;9.76;58.98
63019;BME280;49105;46.046;10.760;2023-04-27T05:59:23;95783.53;;;9.81;58.50
63019;BME280;49105;46.046;10.760;2023-04-27T06:01:48;95794.38;;;9.89;58.72
63019;BME280;49105;46.046;10.760;2023-04-27T06:04:13;95778.25;;;10.01;58.25
63019;BME280;49105;46.046;10.760;2023-04-27T06:06:39;95766.59;;;10.12;58.66
63019;BME280;49105;46.046;10.760;2023-04-27T06:09:04;95778.22;;;10.32;57.72
63019;BME280;49105;46.046;10.760;2023-04-27T06:11:29;95771.31;;;10.51;57.57
63019;BME280;49105;46.046;10.760;2023-04-27T06:13:55;95770.81;;;10.54;57.27
63019;BME280;49105;46.046;10.760;2023-04-27T06:16:20;95770.22;;;10.67;57.14
63019;BME280;49105;46.046;10.760;2023-04-27T06:18:45;95763.06;;;10.78;56.89
63019;BME280;49105;46.046;10.760;2023-04-27T06:21:11;95761.69;;;10.86;56.71
63019;BME280;49105;46.046;10.760;2023-04-27T06:23:36;95770.13;;;10.93;57.10
63019;BME280;49105;46.046;10.760;2023-04-27T06:26:02;95763.50;;;10.96;56.75
63019;BME280;49105;46.046;10.760;2023-04-27T06:28:27;95767.22;;;11.00;56.69
63019;BME280;49105;46.046;10.760;2023-04-27T06:30:53;95769.31;;;10.98;56.81
63019;BME280;49105;46.046;10.760;2023-04-27T06:33:18;95766.13;;;11.01;56.51
63019;BME280;49105;46.046;10.760;2023-04-27T06:35:44;95763.72;;;11.09;56.59
63019;BME280;49105;46.046;10.760;2023-04-27T06:38:09;95775.59;;;11.17;56.65
63019;BME280;49105;46.046;10.760;2023-04-27T06:40:35;95767.13;;;11.20;56.35
63019;BME280;49105;46.046;10.760;2023-04-27T06:43:01;95769.19;;;11.23;56.47
63019;BME280;49105;46.046;10.760;2023-04-27T06:45:26;95775.00;;;11.30;55.87
63019;BME280;49105;46.046;10.760;2023-04-27T06:47:51;95775.00;;;11.30;56.02
63019;BME280;49105;46.046;10.760;2023-04-27T06:50:17;95767.59;;;11.32;56.05
63019;BME280;49105;46.046;10.760;2023-04-27T06:52:42;95764.69;;;11.29;55.98
63019;BME280;49105;46.046;10.760;2023-04-27T06:55:08;95763.56;;;11.35;55.80
63019;BME280;49105;46.046;10.760;2023-04-27T06:57:33;95767.50;;;11.42;55.85
63019;BME280;49105;46.046;10.760;2023-04-27T06:59:58;95766.91;;;11.56;55.58
63019;BME280;49105;46.046;10.760;2023-04-27T07:02:24;95764.69;;;11.68;55.06
63019;BME280;49105;46.046;10.760;2023-04-27T07:04:49;95771.31;;;11.71;55.10
63019;BME280;49105;46.046;10.760;2023-04-27T07:07:15;95780.81;;;11.77;55.09
63019;BME280;49105;46.046;10.760;2023-04-27T07:09:40;95775.25;;;11.78;54.99
63019;BME280;49105;46.046;10.760;2023-04-27T07:12:06;95769.94;;;11.83;55.12
63019;BME280;49105;46.046;10.760;2023-04-27T07:14:31;95762.44;;;11.90;55.00
63019;BME280;49105;46.046;10.760;2023-04-27T07:16:57;95757.34;;;11.99;54.69
63019;BME280;49105;46.046;10.760;2023-04-27T07:19:22;95762.34;;;12.06;54.58
63019;BME280;49105;46.046;10.760;2023-04-27T07:21:48;95750.13;;;12.05;54.57
63019;BME280;49105;46.046;10.760;2023-04-27T07:24:14;95753.25;;;12.12;54.45
63019;BME280;49105;46.046;10.760;2023-04-27T07:26:39;95743.59;;;12.21;54.12
63019;BME280;49105;46.046;10.760;2023-04-27T07:29:05;95752.03;;;12.28;53.48
63019;BME280;49105;46.046;10.760;2023-04-27T07:31:30;95742.91;;;12.39;53.30
63019;BME280;49105;46.046;10.760;2023-04-27T07:33:57;95736.22;;;12.47;52.94
63019;BME280;49105;46.046;10.760;2023-04-27T07:36:24;95739.06;;;12.51;52.90
63019;BME280;49105;46.046;10.760;2023-04-27T07:38:51;95735.63;;;12.50;53.13
63019;BME280;49105;46.046;10.760;2023-04-27T07:41:17;95733.81;;;12.46;53.03
63019;BME280;49105;46.046;10.760;2023-04-27T07:43:44;95728.00;;;12.44;52.72
63019;BME280;49105;46.046;10.760;2023-04-27T07:46:09;95725.75;;;12.56;52.68
63019;BME280;49105;46.046;10.760;2023-04-27T07:48:35;95726.16;;;12.68;52.29
63019;BME280;49105;46.046;10.760;2023-04-27T07:51:01;95728.13;;;12.81;51.94
63019;BME280;49105;46.046;10.760;2023-04-27T07:53:26;95725.84;;;12.94;51.53
63019;BME280;49105;46.046;10.760;2023-04-27T07:55:51;95731.59;;;13.01;51.55
63019;BME280;49105;46.046;10.760;2023-04-27T07:58:17;95730.97;;;13.09;51.43
63019;BME280;49105;46.046;10.760;2023-04-27T08:00:43;95729.88;;;13.10;51.10
63019;BME280;49105;46.046;10.760;2023-04-27T08:03:09;95726.94;;;13.11;51.43
63019;BME280;49105;46.046;10.760;2023-04-27T08:05:34;95727.59;;;13.22;50.93
63019;BME280;49105;46.046;10.760;2023-04-27T08:07:59;95724.34;;;13.30;50.51
63019;BME280;49105;46.046;10.760;2023-04-27T08:10:25;95724.78;;;13.37;50.98
63019;BME280;49105;46.046;10.760;2023-04-27T08:12:50;95723.91;;;13.42;50.24
63019;BME280;49105;46.046;10.760;2023-04-27T08:15:16;95726.19;;;13.49;50.23
63019;BME280;49105;46.046;10.760;2023-04-27T08:17:41;95724.75;;;13.56;50.16
63019;BME280;49105;46.046;10.760;2023-04-27T08:20:07;95722.53;;;13.63;50.17
63019;BME280;49105;46.046;10.760;2023-04-27T08:22:36;95716.84;;;13.70;49.88
63019;BME280;49105;46.046;10.760;2023-04-27T08:25:01;95719.63;;;13.79;50.14
63019;BME280;49105;46.046;10.760;2023-04-27T08:27:28;95716.97;;;13.79;50.04
63019;BME280;49105;46.046;10.760;2023-04-27T08:29:53;95715.69;;;13.76;49.91
63019;BME280;49105;46.046;10.760;2023-04-27T08:32:18;95716.09;;;13.83;49.97
63019;BME280;49105;46.046;10.760;2023-04-27T08:34:43;95710.59;;;13.94;50.06
63019;BME280;49105;46.046;10.760;2023-04-27T08:37:10;95710.22;;;14.00;49.49
63019;BME280;49105;46.046;10.760;2023-04-27T08:39:35;95705.03;;;14.09;49.59
63019;BME280;49105;46.046;10.760;2023-04-27T08:42:08;95707.44;;;14.24;49.42
63019;BME280;49105;46.046;10.760;2023-04-27T08:44:36;95700.53;;;14.37;49.00
63019;BME280;49105;46.046;10.760;2023-04-27T08:47:03;95697.97;;;14.46;49.28
63019;BME280;49105;46.046;10.760;2023-04-27T08:49:28;95695.75;;;14.53;49.08
63019;BME280;49105;46.046;10.760;2023-04-27T08:51:53;95696.31;;;14.63;48.71
63019;BME280;49105;46.046;10.760;2023-04-27T08:54:18;95692.97;;;14.72;48.79
63019;BME280;49105;46.046;10.760;2023-04-27T08:56:44;95685.84;;;14.81;48.37
63019;BME280;49105;46.046;10.760;2023-04-27T08:59:13;95687.66;;;14.85;47.83
63019;BME280;49105;46.046;10.760;2023-04-27T09:01:42;95686.44;;;14.92;47.41
63019;BME280;49105;46.046;10.760;2023-04-27T09:04:07;95684.97;;;14.99;47.60
63019;BME280;49105;46.046;10.760;2023-04-27T09:06:33;95676.19;;;14.99;46.47
63019;BME280;49105;46.046;10.760;2023-04-27T09:08:59;95680.09;;;15.01;46.05
63019;BME280;49105;46.046;10.760;2023-04-27T09:13:56;95671.91;;;15.11;45.85
63019;BME280;49105;46.046;10.760;2023-04-27T09:16:22;95671.38;;;15.23;45.93
63019;BME280;49105;46.046;10.760;2023-04-27T09:18:48;95666.41;;;15.30;45.52
63019;BME280;49105;46.046;10.760;2023-04-27T09:21:34;95668.34;;;15.38;45.97
63019;BME280;49105;46.046;10.760;2023-04-27T09:24:08;95667.94;;;15.45;44.93
63019;BME280;49105;46.046;10.760;2023-04-27T09:26:33;95659.94;;;15.45;44.98
63019;BME280;49105;46.046;10.760;2023-04-27T09:28:59;95657.03;;;15.55;45.09
63019;BME280;49105;46.046;10.760;2023-04-27T09:31:30;95657.19;;;15.59;44.66
63019;BME280;49105;46.046;10.760;2023-04-27T09:33:56;95660.38;;;15.61;44.57
63019;BME280;49105;46.046;10.760;2023-04-27T09:36:21;95650.69;;;15.65;44.06
63019;BME280;49105;46.046;10.760;2023-04-27T09:38:47;95648.09;;;15.74;44.52
63019;BME280;49105;46.046;10.760;2023-04-27T09:41:13;95657.72;;;15.83;44.58
63019;BME280;49105;46.046;10.760;2023-04-27T09:43:39;95651.16;;;15.90;44.28
63019;BME280;49105;46.046;10.760;2023-04-27T09:46:08;95645.69;;;15.95;44.55
63019;BME280;49105;46.046;10.760;2023-04-27T09:48:33;95650.88;;;16.00;44.20
63019;BME280;49105;46.046;10.760;2023-04-27T09:50:59;95638.81;;;16.02;44.11
63019;BME280;49105;46.046;10.760;2023-04-27T09:53:45;95636.81;;;16.08;44.17
63019;BME280;49105;46.046;10.760;2023-04-27T09:56:15;95637.47;;;16.13;43.35
63019;BME280;49105;46.046;10.760;2023-04-27T09:58:53;95633.72;;;16.23;43.55
63019;BME280;49105;46.046;10.760;2023-04-27T10:01:54;95627.28;;;16.24;43.41
63019;BME280;49105;46.046;10.760;2023-04-27T10:07:17;95616.97;;;16.31;43.35
63019;BME280;49105;46.046;10.760;2023-04-27T10:09:40;95625.31;;;16.38;42.88
63019;BME280;49105;46.046;10.760;2023-04-27T10:14:56;95624.75;;;16.59;42.77
63019;BME280;49105;46.046;10.760;2023-04-27T10:17:34;95621.44;;;16.62;42.64
63019;BME280;49105;46.046;10.760;2023-04-27T10:20:01;95621.97;;;16.73;42.76
63019;BME280;49105;46.046;10.760;2023-04-27T10:22:43;95622.94;;;16.85;42.53
63019;BME280;49105;46.046;10.760;2023-04-27T10:25:51;95624.03;;;16.84;41.18
63019;BME280;49105;46.046;10.760;2023-04-27T10:28:00;95619.47;;;16.85;41.06
63019;BME280;49105;46.046;10.760;2023-04-27T10:30:36;95621.88;;;16.95;41.76
63019;BME280;49105;46.046;10.760;2023-04-27T10:33:08;95614.78;;;17.08;41.32
63019;BME280;49105;46.046;10.760;2023-04-27T10:35:35;95605.97;;;17.16;41.72
63019;BME280;49105;46.046;10.760;2023-04-27T10:38:04;95610.38;;;17.29;41.69
63019;BME280;49105;46.046;10.760;2023-04-27T10:40:31;95609.28;;;17.30;41.46
63019;BME280;49105;46.046;10.760;2023-04-27T10:43:06;95607.53;;;17.34;41.60
63019;BME280;49105;46.046;10.760;2023-04-27T10:45:32;95606.75;;;17.34;41.09
63019;BME280;49105;46.046;10.760;2023-04-27T10:47:58;95595.72;;;17.35;41.13
63019;BME280;49105;46.046;10.760;2023-04-27T10:50:24;95609.59;;;17.38;40.82
63019;BME280;49105;46.046;10.760;2023-04-27T10:52:50;95600.28;;;17.44;40.86
63019;BME280;49105;46.046;10.760;2023-04-27T10:55:15;95602.00;;;17.48;40.70
63019;BME280;49105;46.046;10.760;2023-04-27T10:57:52;95600.44;;;17.47;40.88
63019;BME280;49105;46.046;10.760;2023-04-27T11:02:49;95597.47;;;17.49;40.66
63019;BME280;49105;46.046;10.760;2023-04-27T11:05:32;95582.66;;;17.43;40.36
63019;BME280;49105;46.046;10.760;2023-04-27T11:08:04;95586.59;;;17.45;39.98
63019;BME280;49105;46.046;10.760;2023-04-27T11:10:30;95587.38;;;17.46;39.40
63019;BME280;49105;46.046;10.760;2023-04-27T11:12:56;95580.91;;;17.55;39.85
63019;BME280;49105;46.046;10.760;2023-04-27T11:15:21;95579.78;;;17.65;39.32
63019;BME280;49105;46.046;10.760;2023-04-27T11:17:46;95573.78;;;17.68;39.53
63019;BME280;49105;46.046;10.760;2023-04-27T11:20:12;95577.41;;;17.72;39.39
63019;BME280;49105;46.046;10.760;2023-04-27T11:22:43;95581.38;;;17.75;39.33
63019;BME280;49105;46.046;10.760;2023-04-27T11:25:10;95570.81;;;17.78;39.26
63019;BME280;49105;46.046;10.760;2023-04-27T11:27:38;95579.63;;;17.79;38.61
63019;BME280;49105;46.046;10.760;2023-04-27T11:30:04;95565.00;;;17.76;38.82
63019;BME280;49105;46.046;10.760;2023-04-27T11:32:29;95559.00;;;17.79;38.42
63019;BME280;49105;46.046;10.760;2023-04-27T11:34:55;95563.34;;;17.93;39.01
63019;BME280;49105;46.046;10.760;2023-04-27T11:37:24;95563.69;;;17.91;38.75
63019;BME280;49105;46.046;10.760;2023-04-27T11:39:50;95563.84;;;17.95;38.40
63019;BME280;49105;46.046;10.760;2023-04-27T11:42:25;95554.69;;;17.96;38.48
63019;BME280;49105;46.046;10.760;2023-04-27T11:44:55;95555.47;;;17.96;38.52
63019;BME280;49105;46.046;10.760;2023-04-27T11:47:22;95563.03;;;18.03;38.56
63019;BME280;49105;46.046;10.760;2023-04-27T11:49:48;95557.94;;;18.10;38.62
63019;BME280;49105;46.046;10.760;2023-04-27T11:52:13;95556.47;;;18.21;38.55
63019;BME280;49105;46.046;10.760;2023-04-27T11:54:45;95556.00;;;18.19;37.72
63019;BME280;49105;46.046;10.760;2023-04-27T11:57:11;95556.00;;;18.19;37.92
63019;BME280;49105;46.046;10.760;2023-04-27T11:59:36;95567.00;;;18.26;38.10
63019;BME280;49105;46.046;10.760;2023-04-27T12:02:01;95561.38;;;18.19;37.82
63019;BME280;49105;46.046;10.760;2023-04-27T12:04:28;95566.88;;;18.14;37.83
63019;BME280;49105;46.046;10.760;2023-04-27T12:06:53;95565.84;;;18.06;37.45
63019;BME280;49105;46.046;10.760;2023-04-27T12:09:18;95568.38;;;18.03;37.43
63019;BME280;49105;46.046;10.760;2023-04-27T12:11:43;95563.03;;;18.03;36.66
63019;BME280;49105;46.046;10.760;2023-04-27T12:14:09;95562.34;;;18.15;36.99
63019;BME280;49105;46.046;10.760;2023-04-27T12:16:34;95567.13;;;18.30;37.22
63019;BME280;49105;46.046;10.760;2023-04-27T12:18:59;95562.50;;;18.39;36.91
63019;BME280;49105;46.046;10.760;2023-04-27T12:21:25;95567.69;;;18.44;37.09
63019;BME280;49105;46.046;10.760;2023-04-27T12:23:50;95572.72;;;18.46;36.89
63019;BME280;49105;46.046;10.760;2023-04-27T12:26:16;95572.88;;;18.49;36.90
63019;BME280;49105;46.046;10.760;2023-04-27T12:28:42;95568.50;;;18.45;36.99
63019;BME280;49105;46.046;10.760;2023-04-27T12:31:07;95575.56;;;18.49;36.88
63019;BME280;49105;46.046;10.760;2023-04-27T12:33:33;95570.53;;;18.48;36.97
63019;BME280;49105;46.046;10.760;2023-04-27T12:35:58;95580.06;;;18.57;36.63
63019;BME280;49105;46.046;10.760;2023-04-27T12:38:23;95577.53;;;18.61;36.39
63019;BME280;49105;46.046;10.760;2023-04-27T12:40:48;95574.81;;;18.70;36.36
63019;BME280;49105;46.046;10.760;2023-04-27T12:43:14;95576.38;;;18.71;36.14
63019;BME280;49105;46.046;10.760;2023-04-27T12:45:39;95571.75;;;18.80;36.08
63019;BME280;49105;46.046;10.760;2023-04-27T12:48:05;95566.44;;;18.92;36.29
63019;BME280;49105;46.046;10.760;2023-04-27T12:50:30;95572.09;;;18.99;36.19
63019;BME280;49105;46.046;10.760;2023-04-27T12:52:56;95573.84;;;18.95;36.11
63019;BME280;49105;46.046;10.760;2023-04-27T12:55:21;95572.34;;;18.86;35.90
63019;BME280;49105;46.046;10.760;2023-04-27T12:57:46;95581.44;;;18.72;36.06
63019;BME280;49105;46.046;10.760;2023-04-27T13:00:12;95587.47;;;18.60;36.27